createdAt,value
2022-12-18T00:00:08.733Z,98694.14
2022-12-18T00:03:02.050Z,98700.30
2022-12-18T00:05:30.534Z,98696.88
2022-12-18T00:07:59.237Z,98698.33
2022-12-18T00:10:28.960Z,98706.70
2022-12-18T00:12:57.310Z,98710.71
2022-12-18T00:15:25.385Z,98714.22
2022-12-18T00:17:53.452Z,98718.10
2022-12-18T00:20:26.568Z,98724.67
2022-12-18T00:22:55.984Z,98729.48
2022-12-18T00:25:24.769Z,98728.83
2022-12-18T00:27:53.060Z,98730.55
2022-12-18T00:30:21.164Z,98732.40
2022-12-18T00:32:49.262Z,98734.52
2022-12-18T00:35:17.469Z,98730.36
2022-12-18T00:37:45.626Z,98733.43
2022-12-18T00:40:13.863Z,98734.68
2022-12-18T00:42:56.989Z,98737.27
2022-12-18T00:45:31.904Z,98740.90
2022-12-18T00:48:00.062Z,98747.70
2022-12-18T00:50:28.219Z,98750.45
2022-12-18T00:52:56.343Z,98750.14
2022-12-18T00:55:24.515Z,98754.79
2022-12-18T00:57:53.747Z,98755.04
2022-12-18T01:00:22.431Z,98752.45
2022-12-18T01:02:50.784Z,98755.67
2022-12-18T01:05:19.706Z,98756.09
2022-12-18T01:07:47.801Z,98759.52
2022-12-18T01:10:16.183Z,98758.23
2022-12-18T01:12:44.340Z,98758.87
2022-12-18T01:15:14.455Z,98762.26
2022-12-18T01:17:43.426Z,98762.70
2022-12-18T01:20:13.265Z,98758.70
2022-12-18T01:22:41.650Z,98757.88
2022-12-18T01:25:09.925Z,98755.61
2022-12-18T01:27:38.275Z,98758.52
2022-12-18T01:30:08.232Z,98753.77
2022-12-18T01:32:36.613Z,98757.71
2022-12-18T01:35:07.071Z,98761.67
2022-12-18T01:37:35.595Z,98760.19
2022-12-18T01:40:04.398Z,98760.30
2022-12-18T01:42:32.553Z,98756.87
2022-12-18T01:45:12.191Z,98759.79
2022-12-18T01:47:42.915Z,98762.67
2022-12-18T01:50:20.179Z,98766.56
2022-12-18T01:52:56.835Z,98769.41
2022-12-18T01:55:30.120Z,98771.34
2022-12-18T01:58:01.439Z,98769.54
2022-12-18T02:00:30.975Z,98775.88
2022-12-18T02:02:59.222Z,98774.08
2022-12-18T02:05:56.665Z,98777.12
2022-12-18T02:08:42.395Z,98783.87
2022-12-18T02:11:34.716Z,98787.88
2022-12-18T02:14:50.608Z,98789.96
2022-12-18T02:17:40.287Z,98790.23
2022-12-18T02:20:15.503Z,98795.19
2022-12-18T02:23:55.557Z,98802.28
2022-12-18T02:26:41.754Z,98805.58
2022-12-18T02:29:17.826Z,98811.08
2022-12-18T02:31:54.839Z,98811.02
2022-12-18T02:34:30.015Z,98817.60
2022-12-18T02:37:03.112Z,98823.67
2022-12-18T02:39:34.249Z,98825.46
2022-12-18T02:42:08.914Z,98827.25
2022-12-18T02:44:52.106Z,98827.82
2022-12-18T02:47:29.637Z,98828.85
2022-12-18T02:50:28.397Z,98833.60
2022-12-18T02:53:07.339Z,98840.79
2022-12-18T02:55:54.220Z,98847.63
2022-12-18T02:58:37.470Z,98857.17
2022-12-18T03:01:53.402Z,98860.83
2022-12-18T03:05:08.716Z,98865.05
2022-12-18T03:07:51.999Z,98872.39
2022-12-18T03:10:29.726Z,98878.33
2022-12-18T03:13:07.658Z,98880.17
2022-12-18T03:15:46.712Z,98884.02
2022-12-18T03:18:23.272Z,98888.83
2022-12-18T03:20:59.518Z,98896.46
2022-12-18T03:23:35.700Z,98902.73
2022-12-18T03:26:10.626Z,98902.48
2022-12-18T03:28:52.470Z,98908.60
2022-12-18T03:31:24.307Z,98911.90
2022-12-18T03:33:59.971Z,98917.45
2022-12-18T03:36:34.054Z,98923.17
2022-12-18T03:39:03.767Z,98927.15
2022-12-18T03:42:03.820Z,98932.30
2022-12-18T03:44:53.079Z,98937.70
2022-12-18T03:48:05.112Z,98947.21
2022-12-18T03:50:39.720Z,98949.77
2022-12-18T03:53:51.244Z,98953.96
2022-12-18T03:56:23.864Z,98960.44
2022-12-18T03:58:54.971Z,98961.90
2022-12-18T04:01:35.899Z,98967.07
2022-12-18T04:04:05.989Z,98969.45
2022-12-18T04:06:38.098Z,98970.03
2022-12-18T04:09:06.600Z,98972.80
2022-12-18T04:11:37.621Z,98974.63
2022-12-18T04:14:07.441Z,98978.27
2022-12-18T04:16:36.925Z,98981.28
2022-12-18T04:19:06.474Z,98983.44
2022-12-18T04:21:39.663Z,98988.63
2022-12-18T04:24:08.148Z,98990.20
2022-12-18T04:26:36.644Z,98997.56
2022-12-18T04:29:25.923Z,99005.11
2022-12-18T04:31:54.048Z,99006.48
2022-12-18T04:34:22.686Z,99005.79
2022-12-18T04:36:52.348Z,99006.67
2022-12-18T04:39:21.883Z,99008.70
2022-12-18T04:41:50.933Z,99010.52
2022-12-18T04:44:19.457Z,99012.08
2022-12-18T04:46:47.569Z,99013.95
2022-12-18T04:49:15.824Z,99013.88
2022-12-18T04:51:43.895Z,99016.30
2022-12-18T04:54:12.134Z,99016.65
2022-12-18T04:56:40.809Z,99020.39
2022-12-18T04:59:08.912Z,99022.21
2022-12-18T05:01:37.199Z,99030.55
2022-12-18T05:04:05.469Z,99039.44
2022-12-18T05:06:33.822Z,99038.86
2022-12-18T05:09:02.193Z,99039.39
2022-12-18T05:11:31.267Z,99039.07
2022-12-18T05:14:00.456Z,99042.64
2022-12-18T05:16:28.683Z,99043.20
2022-12-18T05:18:56.750Z,99053.42
2022-12-18T05:21:25.076Z,99057.63
2022-12-18T05:23:53.224Z,99062.25
2022-12-18T05:26:21.318Z,99067.29
2022-12-18T05:28:49.421Z,99071.20
2022-12-18T05:31:17.653Z,99070.14
2022-12-18T05:33:45.816Z,99075.69
2022-12-18T05:36:14.109Z,99078.58
2022-12-18T05:38:42.743Z,99079.39
2022-12-18T05:41:11.320Z,99083.42
2022-12-18T05:43:42.840Z,99087.57
2022-12-18T05:46:18.714Z,99094.98
2022-12-18T05:48:47.473Z,99098.79
2022-12-18T05:51:18.658Z,99106.99
2022-12-18T05:53:47.694Z,99109.73
2022-12-18T05:56:23.454Z,99116.94
2022-12-18T05:58:55.404Z,99118.52
2022-12-18T06:01:27.450Z,99114.65
2022-12-18T06:03:56.483Z,99115.98
2022-12-18T06:06:27.864Z,99123.77
2022-12-18T06:08:57.622Z,99128.90
2022-12-18T06:11:27.635Z,99132.29
2022-12-18T06:13:59.057Z,99142.32
2022-12-18T06:16:29.488Z,99150.60
2022-12-18T06:19:03.313Z,99154.27
2022-12-18T06:21:33.181Z,99156.83
2022-12-18T06:24:02.074Z,99162.46
2022-12-18T06:26:30.228Z,99167.20
2022-12-18T06:28:58.794Z,99173.77
2022-12-18T06:31:27.359Z,99175.71
2022-12-18T06:33:55.554Z,99176.13
2022-12-18T06:36:23.812Z,99182.52
2022-12-18T06:38:52.158Z,99184.81
2022-12-18T06:41:22.897Z,99194.78
2022-12-18T06:43:59.348Z,99198.57
2022-12-18T06:46:39.000Z,99202.91
2022-12-18T06:49:07.738Z,99209.98
2022-12-18T06:51:35.969Z,99215.04
2022-12-18T06:54:04.686Z,99219.67
2022-12-18T06:56:32.842Z,99219.83
2022-12-18T06:59:01.098Z,99218.55
2022-12-18T07:01:29.438Z,99219.46
2022-12-18T07:03:59.223Z,99221.42
2022-12-18T07:06:27.855Z,99222.90
2022-12-18T07:08:56.456Z,99232.23
2022-12-18T07:11:25.289Z,99242.96
2022-12-18T07:13:54.090Z,99245.36
2022-12-18T07:16:25.513Z,99251.31
2022-12-18T07:18:56.747Z,99253.14
2022-12-18T07:21:26.726Z,99257.46
2022-12-18T07:23:54.956Z,99259.39
2022-12-18T07:26:24.124Z,99261.80
2022-12-18T07:28:59.168Z,99263.11
2022-12-18T07:31:28.852Z,99265.86
2022-12-18T07:33:57.446Z,99273.06
2022-12-18T07:36:26.411Z,99276.98
2022-12-18T07:38:57.173Z,99274.88
2022-12-18T07:41:25.361Z,99277.48
2022-12-18T07:43:53.549Z,99278.02
2022-12-18T07:46:22.385Z,99285.36
2022-12-18T07:48:50.641Z,99288.17
2022-12-18T07:51:22.922Z,99292.20
2022-12-18T07:53:52.007Z,99291.13
2022-12-18T07:56:27.645Z,99294.19
2022-12-18T07:58:57.225Z,99298.25
2022-12-18T08:01:30.192Z,99300.83
2022-12-18T08:04:00.027Z,99306.48
2022-12-18T08:06:29.576Z,99311.00
2022-12-18T08:08:58.503Z,99314.63
2022-12-18T08:11:29.768Z,99317.30
2022-12-18T08:14:00.164Z,99324.33
2022-12-18T08:16:29.367Z,99325.48
2022-12-18T08:18:57.671Z,99329.48
2022-12-18T08:21:29.776Z,99333.98
2022-12-18T08:24:02.740Z,99338.07
2022-12-18T08:26:32.586Z,99342.59
2022-12-18T08:29:01.859Z,99341.46
2022-12-18T08:31:32.069Z,99345.69
2022-12-18T08:34:00.550Z,99348.52
2022-12-18T08:36:28.843Z,99345.64
2022-12-18T08:38:58.274Z,99346.18
2022-12-18T08:41:27.781Z,99343.20
2022-12-18T08:44:15.144Z,99348.27
2022-12-18T08:46:45.159Z,99355.02
2022-12-18T08:49:13.834Z,99349.66
2022-12-18T08:51:42.089Z,99345.81
2022-12-18T08:54:14.682Z,99341.73
2022-12-18T08:56:43.016Z,99345.67
2022-12-18T08:59:17.346Z,99351.59
2022-12-18T09:01:48.366Z,99349.52
2022-12-18T09:04:17.328Z,99350.96
2022-12-18T09:06:45.794Z,99345.33
2022-12-18T09:09:14.358Z,99354.42
2022-12-18T09:11:42.601Z,99350.63
2022-12-18T09:14:11.291Z,99356.01
2022-12-18T09:16:39.481Z,99357.42
2022-12-18T09:19:07.646Z,99357.23
2022-12-18T09:21:37.145Z,99353.85
2022-12-18T09:24:09.153Z,99354.15
2022-12-18T09:26:38.554Z,99357.06
2022-12-18T09:29:08.417Z,99358.48
2022-12-18T09:31:37.809Z,99359.48
2022-12-18T09:34:07.694Z,99360.34
2022-12-18T09:36:36.121Z,99363.96
2022-12-18T09:39:08.602Z,99364.23
2022-12-18T09:41:51.109Z,99365.92
2022-12-18T09:44:44.496Z,99367.98
2022-12-18T09:47:21.084Z,99365.81
2022-12-18T09:49:54.225Z,99365.80
2022-12-18T09:52:45.242Z,99374.42
2022-12-18T09:55:38.181Z,99374.92
2022-12-18T09:58:27.981Z,99368.01
2022-12-18T10:00:56.971Z,99366.29
2022-12-18T10:03:25.784Z,99368.64
2022-12-18T10:05:59.564Z,99371.70
2022-12-18T10:09:02.964Z,99375.06
2022-12-18T10:11:47.014Z,99373.80
2022-12-18T10:15:21.883Z,99372.23
2022-12-18T10:18:03.443Z,99377.25
2022-12-18T10:20:44.929Z,99378.52
2022-12-18T10:23:34.809Z,99378.70
2022-12-18T10:26:10.451Z,99376.49
2022-12-18T10:28:42.289Z,99379.55
2022-12-18T10:31:21.380Z,99376.55
2022-12-18T10:33:59.055Z,99379.54
2022-12-18T10:36:27.857Z,99381.48
2022-12-18T10:39:27.321Z,99383.23
2022-12-18T10:42:19.296Z,99383.70
2022-12-18T10:45:04.139Z,99381.80
2022-12-18T10:47:35.836Z,99384.92
2022-12-18T10:50:47.203Z,99389.36
2022-12-18T10:53:29.887Z,99393.11
2022-12-18T10:56:03.665Z,99390.45
2022-12-18T10:58:39.187Z,99389.84
2022-12-18T11:01:19.856Z,99391.21
2022-12-18T11:04:08.353Z,99392.38
2022-12-18T11:06:55.191Z,99387.60
2022-12-18T11:09:30.254Z,99391.28
2022-12-18T11:12:19.399Z,99393.90
2022-12-18T11:14:51.762Z,99390.55
2022-12-18T11:17:42.584Z,99393.54
2022-12-18T11:20:42.126Z,99397.25
2022-12-18T11:23:18.338Z,99398.14
2022-12-18T11:26:07.528Z,99397.36
2022-12-18T11:28:45.024Z,99395.31
2022-12-18T11:31:26.960Z,99396.73
2022-12-18T11:34:31.261Z,99394.85
2022-12-18T11:37:04.184Z,99398.13
2022-12-18T11:40:10.768Z,99396.52
2022-12-18T11:42:50.028Z,99401.81
2022-12-18T11:45:49.918Z,99397.34
2022-12-18T11:48:31.458Z,99400.92
2022-12-18T11:51:07.535Z,99401.34
2022-12-18T11:54:04.050Z,99401.12
2022-12-18T11:56:54.806Z,99404.57
2022-12-18T11:59:55.925Z,99401.55
2022-12-18T12:03:16.724Z,99404.17
2022-12-18T12:05:59.915Z,99408.23
2022-12-18T12:08:59.502Z,99407.49
2022-12-18T12:11:50.951Z,99413.92
2022-12-18T12:14:45.098Z,99410.14
2022-12-18T12:17:42.356Z,99413.51
2022-12-18T12:20:44.024Z,99416.23
2022-12-18T12:23:51.115Z,99415.55
2022-12-18T12:26:40.032Z,99411.10
2022-12-18T12:29:11.207Z,99418.86
2022-12-18T12:32:02.610Z,99419.98
2022-12-18T12:35:07.735Z,99418.99
2022-12-18T12:37:59.905Z,99420.88
2022-12-18T12:43:46.119Z,99426.26
2022-12-18T12:46:23.049Z,99426.70
2022-12-18T12:49:03.587Z,99425.65
2022-12-18T12:51:44.378Z,99429.84
2022-12-18T12:54:23.166Z,99433.98
2022-12-18T12:57:21.870Z,99443.44
2022-12-18T13:00:07.535Z,99447.66
2022-12-18T13:03:06.941Z,99452.39
2022-12-18T13:05:40.001Z,99454.21
2022-12-18T13:08:22.864Z,99452.49
2022-12-18T13:11:14.780Z,99452.02
2022-12-18T13:13:56.780Z,99455.09
2022-12-18T13:16:28.658Z,99461.67
2022-12-18T13:18:59.963Z,99463.30
2022-12-18T13:21:32.017Z,99468.88
2022-12-18T13:24:26.185Z,99473.89
2022-12-18T13:26:55.341Z,99478.40
2022-12-18T13:29:47.515Z,99477.98
2022-12-18T13:32:26.701Z,99477.76
2022-12-18T13:35:22.683Z,99480.62
2022-12-18T13:37:55.404Z,99482.13
2022-12-18T13:40:48.571Z,99481.98
2022-12-18T13:43:20.004Z,99485.05
2022-12-18T13:46:02.856Z,99482.21
2022-12-18T13:48:37.157Z,99481.20
2022-12-18T13:51:12.193Z,99479.79
2022-12-18T13:53:51.113Z,99479.52
2022-12-18T13:56:27.215Z,99481.83
2022-12-18T13:59:27.599Z,99477.58
2022-12-18T14:02:14.594Z,99476.02
2022-12-18T14:04:48.219Z,99474.11
2022-12-18T14:07:21.003Z,99475.58
2022-12-18T14:10:18.894Z,99478.75
2022-12-18T14:13:03.135Z,99483.95
2022-12-18T14:15:44.866Z,99481.88
2022-12-18T14:18:29.885Z,99483.89
2022-12-18T14:21:01.437Z,99486.16
2022-12-18T14:23:40.120Z,99487.88
2022-12-18T14:26:30.256Z,99489.59
2022-12-18T14:29:18.392Z,99491.48
2022-12-18T14:31:47.834Z,99492.23
2022-12-18T14:34:18.592Z,99497.80
2022-12-18T14:36:56.331Z,99503.27
2022-12-18T14:39:26.489Z,99509.77
2022-12-18T14:41:55.628Z,99517.05
2022-12-18T14:44:24.351Z,99519.90
2022-12-18T14:46:52.710Z,99521.14
2022-12-18T14:49:33.482Z,99527.92
2022-12-18T14:52:27.357Z,99535.19
2022-12-18T14:54:55.838Z,99539.90
2022-12-18T14:57:38.822Z,99544.39
2022-12-18T15:00:17.036Z,99547.40
2022-12-18T15:02:49.465Z,99552.76
2022-12-18T15:05:26.418Z,99555.87
2022-12-18T15:07:58.910Z,99555.94
2022-12-18T15:10:34.088Z,99556.39
2022-12-18T15:13:03.644Z,99561.70
2022-12-18T15:15:35.087Z,99564.94
2022-12-18T15:18:07.980Z,99570.18
2022-12-18T15:20:51.851Z,99573.23
2022-12-18T15:23:23.866Z,99573.57
2022-12-18T15:26:07.826Z,99580.70
2022-12-18T15:28:54.030Z,99585.39
2022-12-18T15:31:30.492Z,99594.07
2022-12-18T15:34:00.130Z,99596.70
2022-12-18T15:36:31.523Z,99599.02
2022-12-18T15:39:04.731Z,99603.73
2022-12-18T15:41:37.099Z,99607.26
2022-12-18T15:44:26.558Z,99606.87
2022-12-18T15:46:59.091Z,99609.75
2022-12-18T15:49:27.299Z,99611.02
2022-12-18T15:52:00.556Z,99614.64
2022-12-18T15:54:47.655Z,99615.28
2022-12-18T15:57:24.676Z,99610.63
2022-12-18T15:59:57.427Z,99612.39
2022-12-18T16:02:26.682Z,99614.39
2022-12-18T16:04:55.244Z,99617.89
2022-12-18T16:07:25.122Z,99615.74
2022-12-18T16:09:54.306Z,99616.54
2022-12-18T16:12:26.482Z,99619.17
2022-12-18T16:14:54.793Z,99624.10
2022-12-18T16:17:22.978Z,99627.39
2022-12-18T16:19:51.121Z,99631.11
2022-12-18T16:22:26.591Z,99628.77
2022-12-18T16:24:56.504Z,99636.38
2022-12-18T16:27:25.946Z,99638.16
2022-12-18T16:29:54.106Z,99642.09
2022-12-18T16:32:23.473Z,99636.55
2022-12-18T16:34:51.948Z,99634.13
2022-12-18T16:37:20.196Z,99635.27
2022-12-18T16:39:48.576Z,99633.46
2022-12-18T16:42:20.566Z,99636.09
2022-12-18T16:44:50.288Z,99635.65
2022-12-18T16:47:19.877Z,99637.61
2022-12-18T16:49:51.679Z,99640.25
2022-12-18T16:52:20.937Z,99643.63
2022-12-18T16:54:49.525Z,99650.66
2022-12-18T16:57:20.300Z,99654.64
2022-12-18T16:59:50.051Z,99656.54
2022-12-18T17:02:23.629Z,99656.59
2022-12-18T17:04:57.258Z,99661.73
2022-12-18T17:07:27.066Z,99666.41
2022-12-18T17:09:55.947Z,99669.90
2022-12-18T17:12:24.537Z,99674.58
2022-12-18T17:14:52.691Z,99677.34
2022-12-18T17:17:22.783Z,99684.13
2022-12-18T17:19:52.710Z,99687.27
2022-12-18T17:22:23.284Z,99685.38
2022-12-18T17:24:51.654Z,99687.71
2022-12-18T17:27:19.840Z,99688.30
2022-12-18T17:29:49.031Z,99686.83
2022-12-18T17:32:18.229Z,99689.14
2022-12-18T17:34:46.800Z,99687.95
2022-12-18T17:37:15.686Z,99692.59
2022-12-18T17:39:44.293Z,99696.06
2022-12-18T17:42:15.730Z,99701.70
2022-12-18T17:44:45.035Z,99701.69
2022-12-18T17:47:14.358Z,99698.70
2022-12-18T17:49:42.719Z,99701.81
2022-12-18T17:52:11.386Z,99702.98
2022-12-18T17:54:42.199Z,99707.00
2022-12-18T17:57:10.697Z,99707.64
2022-12-18T17:59:39.009Z,99708.25
2022-12-18T18:02:07.585Z,99706.36
2022-12-18T18:04:36.574Z,99707.40
2022-12-18T18:07:04.774Z,99710.55
2022-12-18T18:09:33.223Z,99709.87
2022-12-18T18:12:19.723Z,99710.91
2022-12-18T18:14:48.239Z,99716.78
2022-12-18T18:17:16.544Z,99718.38
2022-12-18T18:19:49.610Z,99720.96
2022-12-18T18:22:19.179Z,99724.13
2022-12-18T18:24:48.502Z,99724.54
2022-12-18T18:27:16.943Z,99726.83
2022-12-18T18:29:45.622Z,99732.67
2022-12-18T18:32:13.835Z,99735.50
2022-12-18T18:34:42.324Z,99736.54
2022-12-18T18:37:11.214Z,99735.88
2022-12-18T18:39:39.696Z,99730.81
2022-12-18T18:42:08.535Z,99728.77
2022-12-18T18:44:37.049Z,99733.09
2022-12-18T18:47:06.964Z,99737.87
2022-12-18T18:49:38.111Z,99741.00
2022-12-18T18:52:07.304Z,99738.52
2022-12-18T18:54:35.586Z,99735.59
2022-12-18T18:57:20.500Z,99734.59
2022-12-18T18:59:49.850Z,99736.86
2022-12-18T19:02:18.402Z,99738.59
2022-12-18T19:04:47.216Z,99739.60
2022-12-18T19:07:26.142Z,99737.48
2022-12-18T19:10:04.432Z,99736.36
2022-12-18T19:12:53.734Z,99741.59
2022-12-18T19:15:23.453Z,99742.92
2022-12-18T19:17:51.746Z,99750.10
2022-12-18T19:20:20.175Z,99753.20
2022-12-18T19:22:55.169Z,99755.77
2022-12-18T19:25:38.065Z,99756.98
2022-12-18T19:28:18.975Z,99758.70
2022-12-18T19:30:58.779Z,99757.45
2022-12-18T19:33:42.885Z,99755.33
2022-12-18T19:36:16.203Z,99758.50
2022-12-18T19:38:45.255Z,99761.56
2022-12-18T19:41:14.828Z,99757.23
2022-12-18T19:43:44.063Z,99760.17
2022-12-18T19:46:16.231Z,99763.92
2022-12-18T19:48:45.295Z,99760.59
2022-12-18T19:51:26.255Z,99762.98
2022-12-18T19:53:59.310Z,99768.23
2022-12-18T19:56:33.398Z,99768.69
2022-12-18T19:59:04.397Z,99771.38
2022-12-18T20:01:32.980Z,99772.10
2022-12-18T20:04:01.792Z,99766.13
2022-12-18T20:06:52.366Z,99765.70
2022-12-18T20:09:22.038Z,99762.69
2022-12-18T20:11:50.832Z,99759.75
2022-12-18T20:14:23.053Z,99757.39
2022-12-18T20:16:53.067Z,99759.65
2022-12-18T20:19:22.317Z,99762.80
2022-12-18T20:21:51.143Z,99766.11
2022-12-18T20:24:19.316Z,99766.25
2022-12-18T20:26:47.552Z,99769.20
2022-12-18T20:29:15.763Z,99767.17
2022-12-18T20:31:44.203Z,99772.28
2022-12-18T20:34:12.423Z,99777.80
2022-12-18T20:36:41.115Z,99783.12
2022-12-18T20:39:12.222Z,99785.90
2022-12-18T20:41:41.651Z,99788.63
2022-12-18T20:44:22.455Z,99784.86
2022-12-18T20:46:57.561Z,99784.11
2022-12-18T20:49:27.005Z,99783.83
2022-12-18T20:51:57.695Z,99783.79
2022-12-18T20:54:27.488Z,99784.20
2022-12-18T20:56:56.738Z,99783.44
2022-12-18T20:59:26.011Z,99787.59
2022-12-18T21:01:54.978Z,99791.50
2022-12-18T21:04:24.224Z,99788.30
2022-12-18T21:07:01.924Z,99787.33
2022-12-18T21:09:37.269Z,99782.25
2022-12-18T21:12:35.016Z,99784.95
2022-12-18T21:15:13.739Z,99790.05
2022-12-18T21:17:44.500Z,99790.83
2022-12-18T21:20:18.086Z,99792.34
2022-12-18T21:22:49.168Z,99792.95
2022-12-18T21:25:17.690Z,99798.16
2022-12-18T21:27:45.862Z,99800.66
2022-12-18T21:30:15.158Z,99806.06
2022-12-18T21:32:43.519Z,99811.85
2022-12-18T21:35:11.922Z,99813.95
2022-12-18T21:37:40.301Z,99817.06
2022-12-18T21:40:09.735Z,99821.16
2022-12-18T21:42:56.423Z,99824.26
2022-12-18T21:45:24.689Z,99828.61
2022-12-18T21:47:52.802Z,99831.49
2022-12-18T21:50:20.927Z,99828.73
2022-12-18T21:52:49.032Z,99831.89
2022-12-18T21:55:17.386Z,99829.84
2022-12-18T21:57:45.555Z,99829.73
2022-12-18T22:00:19.018Z,99835.78
2022-12-18T22:03:03.729Z,99836.87
2022-12-18T22:05:37.569Z,99835.64
2022-12-18T22:08:07.068Z,99835.31
2022-12-18T22:10:36.344Z,99831.76
2022-12-18T22:13:06.330Z,99822.66
2022-12-18T22:15:34.513Z,99820.02
2022-12-18T22:18:02.735Z,99818.83
2022-12-18T22:20:30.873Z,99820.83
2022-12-18T22:23:01.071Z,99826.77
2022-12-18T22:25:35.791Z,99824.36
2022-12-18T22:28:26.476Z,99827.23
2022-12-18T22:30:59.687Z,99828.40
2022-12-18T22:33:28.595Z,99827.06
2022-12-18T22:35:57.090Z,99835.45
2022-12-18T22:38:25.879Z,99834.55
2022-12-18T22:40:55.221Z,99830.21
2022-12-18T22:43:23.454Z,99830.08
2022-12-18T22:45:51.600Z,99830.65
2022-12-18T22:48:20.107Z,99826.57
2022-12-18T22:50:48.224Z,99819.33
2022-12-18T22:53:18.098Z,99817.47
2022-12-18T22:55:46.675Z,99820.88
2022-12-18T22:58:14.706Z,99820.19
2022-12-18T23:00:42.921Z,99822.89
2022-12-18T23:03:11.174Z,99828.10
2022-12-18T23:05:39.678Z,99832.60
2022-12-18T23:08:07.852Z,99828.56
2022-12-18T23:10:39.712Z,99832.10
2022-12-18T23:13:07.836Z,99827.02
2022-12-18T23:15:42.262Z,99825.35
2022-12-18T23:18:10.691Z,99822.75
2022-12-18T23:20:38.865Z,99819.77
2022-12-18T23:23:08.267Z,99818.61
2022-12-18T23:25:36.950Z,99821.70
2022-12-18T23:28:06.482Z,99825.20
2022-12-18T23:30:35.124Z,99836.23
2022-12-18T23:33:03.380Z,99845.15
2022-12-18T23:35:31.900Z,99844.05
2022-12-18T23:38:00.509Z,99843.75
2022-12-18T23:40:30.134Z,99838.36
2022-12-18T23:43:00.346Z,99841.86
2022-12-18T23:45:28.897Z,99843.27
2022-12-18T23:47:57.175Z,99847.21
2022-12-18T23:50:29.116Z,99845.67
2022-12-18T23:53:05.118Z,99843.95
2022-12-18T23:55:39.941Z,99848.06
2022-12-18T23:58:20.900Z,99855.61
